createdAt,value
2022-12-13T00:01:26.306Z,37.03
2022-12-13T00:03:54.227Z,43.33
2022-12-13T00:06:21.367Z,46.20
2022-12-13T00:08:48.396Z,40.70
2022-12-13T00:11:17.202Z,42.93
2022-12-13T00:13:44.370Z,29.40
2022-12-13T00:16:14.136Z,41.07
2022-12-13T00:18:41.116Z,43.67
2022-12-13T00:21:12.892Z,42.60
2022-12-13T00:23:39.818Z,48.47
2022-12-13T00:26:10.204Z,45.73
2022-12-13T00:28:37.787Z,43.97
2022-12-13T00:31:35.258Z,34.67
2022-12-13T00:33:52.169Z,51.33
2022-12-13T00:36:19.928Z,51.77
2022-12-13T00:38:46.876Z,35.73
2022-12-13T00:41:16.988Z,41.20
2022-12-13T00:43:44.720Z,43.80
2022-12-13T00:46:17.587Z,39.25
2022-12-13T00:48:48.345Z,31.27
2022-12-13T00:51:15.442Z,33.73
2022-12-13T00:53:42.383Z,34.23
2022-12-13T00:56:15.013Z,28.53
2022-12-13T00:58:45.015Z,33.63
2022-12-13T01:01:15.823Z,32.90
2022-12-13T01:03:43.196Z,33.60
2022-12-13T01:06:17.639Z,30.07
2022-12-13T01:08:45.116Z,32.67
2022-12-13T01:11:12.900Z,27.53
2022-12-13T01:13:40.368Z,29.87
2022-12-13T01:16:09.735Z,29.47
2022-12-13T01:21:11.441Z,34.00
2022-12-13T01:23:39.122Z,29.43
2022-12-13T01:26:08.429Z,24.97
2022-12-13T01:31:05.972Z,26.30
2022-12-13T01:33:33.850Z,24.10
2022-12-13T01:36:02.888Z,18.83
2022-12-13T01:38:29.702Z,30.05
2022-12-13T01:41:00.179Z,29.93
2022-12-13T01:43:50.216Z,23.10
2022-12-13T01:46:18.959Z,25.83
2022-12-13T01:49:00.824Z,18.30
2022-12-13T01:51:38.137Z,24.87
2022-12-13T01:54:08.796Z,21.07
2022-12-13T01:56:42.881Z,24.90
2022-12-13T01:59:11.602Z,22.90
2022-12-13T02:04:07.395Z,21.13
2022-12-13T02:06:38.107Z,18.33
2022-12-13T02:09:07.054Z,21.83
2022-12-13T02:11:36.037Z,18.30
2022-12-13T02:14:03.608Z,21.92
2022-12-13T02:16:52.989Z,20.97
2022-12-13T02:19:54.736Z,17.73
2022-12-13T02:22:46.226Z,22.63
2022-12-13T02:25:28.415Z,23.47
2022-12-13T02:28:30.180Z,21.00
2022-12-13T02:31:43.676Z,21.90
2022-12-13T02:34:34.972Z,18.83
2022-12-13T02:37:23.719Z,20.33
2022-12-13T02:43:07.276Z,20.83
2022-12-13T02:45:46.287Z,17.57
2022-12-13T02:48:15.765Z,19.40
2022-12-13T02:50:43.426Z,20.57
2022-12-13T02:53:12.996Z,20.07
2022-12-13T02:55:40.783Z,17.27
2022-12-13T02:58:07.691Z,18.80
2022-12-13T03:00:51.275Z,13.57
2022-12-13T03:03:46.141Z,16.00
2022-12-13T03:06:33.286Z,16.87
2022-12-13T03:09:09.902Z,16.48
2022-12-13T03:12:12.229Z,18.90
2022-12-13T03:14:45.387Z,18.13
2022-12-13T03:17:17.210Z,17.50
2022-12-13T03:19:44.431Z,14.40
2022-12-13T03:22:12.096Z,16.10
2022-12-13T03:24:38.874Z,13.97
2022-12-13T03:27:06.158Z,12.70
2022-12-13T03:29:32.944Z,15.60
2022-12-13T03:32:00.093Z,15.03
2022-12-13T03:34:26.941Z,13.77
2022-12-13T03:37:12.305Z,14.87
2022-12-13T03:39:39.415Z,14.33
2022-12-13T03:42:06.661Z,14.03
2022-12-13T03:44:33.445Z,14.17
2022-12-13T03:47:00.890Z,14.93
2022-12-13T03:49:35.203Z,15.10
2022-12-13T03:52:02.849Z,13.40
2022-12-13T03:54:29.646Z,10.70
2022-12-13T03:56:56.786Z,12.50
2022-12-13T03:59:23.524Z,11.47
2022-12-13T04:01:50.715Z,12.97
2022-12-13T04:04:17.544Z,9.83
2022-12-13T04:06:44.720Z,10.13
2022-12-13T04:09:11.483Z,10.40
2022-12-13T04:11:57.202Z,11.43
2022-12-13T04:14:24.039Z,10.70
2022-12-13T04:16:52.558Z,12.63
2022-12-13T04:19:22.869Z,9.90
2022-12-13T04:21:54.284Z,12.83
2022-12-13T04:24:22.477Z,11.60
2022-12-13T04:27:01.019Z,9.77
2022-12-13T04:29:34.537Z,12.25
2022-12-13T04:32:05.755Z,10.70
2022-12-13T04:34:52.601Z,9.43
2022-12-13T04:37:28.793Z,10.83
2022-12-13T04:40:00.949Z,11.87
2022-12-13T04:42:28.661Z,11.93
2022-12-13T04:44:55.467Z,9.57
2022-12-13T04:47:22.951Z,11.53
2022-12-13T04:49:49.821Z,13.17
2022-12-13T04:52:22.764Z,13.03
2022-12-13T04:54:55.833Z,9.37
2022-12-13T04:57:23.968Z,12.40
2022-12-13T04:59:50.713Z,12.27
2022-12-13T05:02:23.401Z,10.50
2022-12-13T05:04:54.411Z,9.70
2022-12-13T05:07:23.011Z,13.60
2022-12-13T05:09:49.814Z,10.77
2022-12-13T05:12:22.578Z,10.67
2022-12-13T05:14:51.582Z,10.13
2022-12-13T05:17:18.915Z,12.77
2022-12-13T05:19:45.805Z,15.67
2022-12-13T05:22:19.896Z,16.60
2022-12-13T05:24:47.446Z,15.17
2022-12-13T05:27:25.893Z,18.17
2022-12-13T05:30:03.613Z,17.03
2022-12-13T05:32:44.026Z,18.98
2022-12-13T05:35:22.763Z,16.63
2022-12-13T05:37:53.861Z,21.33
2022-12-13T05:40:22.126Z,23.80
2022-12-13T05:42:49.316Z,19.07
2022-12-13T05:45:18.370Z,17.10
2022-12-13T05:47:45.790Z,16.47
2022-12-13T05:50:14.030Z,13.43
2022-12-13T05:52:43.005Z,21.58
2022-12-13T05:55:11.222Z,24.98
2022-12-13T05:57:38.726Z,40.08
2022-12-13T06:00:28.514Z,24.97
2022-12-13T06:02:55.750Z,24.83
2022-12-13T06:05:22.970Z,55.33
2022-12-13T06:07:55.117Z,33.67
2022-12-13T06:10:23.822Z,53.47
2022-12-13T06:12:50.893Z,36.77
2022-12-13T06:15:22.497Z,118.63
2022-12-13T06:17:50.110Z,70.23
2022-12-13T06:20:23.927Z,54.40
2022-12-13T06:22:54.672Z,23.07
2022-12-13T06:25:30.074Z,46.43
2022-12-13T06:28:01.690Z,51.67
2022-12-13T06:30:29.713Z,62.07
2022-12-13T06:32:57.448Z,37.65
2022-12-13T06:35:28.401Z,32.53
2022-12-13T06:38:01.194Z,31.60
2022-12-13T06:40:32.538Z,36.73
2022-12-13T06:42:59.771Z,46.27
2022-12-13T06:45:26.940Z,49.50
2022-12-13T06:47:54.044Z,47.53
2022-12-13T06:50:20.892Z,71.03
2022-12-13T06:52:48.196Z,48.57
2022-12-13T06:55:15.381Z,47.73
2022-12-13T06:57:51.937Z,42.47
2022-12-13T07:00:22.452Z,31.90
2022-12-13T07:02:56.944Z,17.60
2022-12-13T07:05:25.165Z,18.33
2022-12-13T07:07:52.328Z,29.80
2022-12-13T07:10:21.822Z,65.17
2022-12-13T07:12:50.678Z,29.83
2022-12-13T07:15:17.799Z,39.23
2022-12-13T07:17:44.948Z,17.73
2022-12-13T07:20:13.674Z,25.30
2022-12-13T07:25:28.462Z,27.10
2022-12-13T07:28:01.891Z,17.80
2022-12-13T07:30:34.507Z,22.20
2022-12-13T07:33:09.405Z,36.23
2022-12-13T07:35:37.184Z,19.60
2022-12-13T07:38:09.147Z,29.42
2022-12-13T07:40:38.343Z,25.63
2022-12-13T07:43:06.586Z,23.43
2022-12-13T07:45:33.665Z,24.70
2022-12-13T07:48:05.427Z,15.93
2022-12-13T07:50:36.828Z,20.57
2022-12-13T07:53:07.330Z,17.67
2022-12-13T07:55:34.555Z,15.97
2022-12-13T07:58:13.080Z,15.80
2022-12-13T08:00:46.474Z,18.30
2022-12-13T08:03:25.447Z,17.27
2022-12-13T08:06:05.572Z,18.13
2022-12-13T08:08:33.897Z,16.40
2022-12-13T08:11:04.477Z,19.97
2022-12-13T08:13:31.928Z,18.60
2022-12-13T08:16:04.572Z,13.60
2022-12-13T08:18:51.593Z,17.37
2022-12-13T08:21:51.833Z,13.20
2022-12-13T08:24:06.621Z,15.00
2022-12-13T08:26:35.037Z,16.87
2022-12-13T08:29:02.312Z,19.13
2022-12-13T08:31:33.853Z,17.33
2022-12-13T08:34:01.226Z,11.43
2022-12-13T08:36:28.651Z,14.93
2022-12-13T08:38:57.101Z,38.57
2022-12-13T08:41:24.755Z,14.10
2022-12-13T08:43:51.895Z,12.13
2022-12-13T08:46:18.739Z,13.93
2022-12-13T08:48:46.098Z,13.70
2022-12-13T08:51:24.560Z,15.07
2022-12-13T08:53:52.985Z,13.53
2022-12-13T08:56:37.670Z,12.23
2022-12-13T08:59:05.321Z,13.27
2022-12-13T09:01:32.904Z,12.53
2022-12-13T09:04:00.042Z,14.57
2022-12-13T09:06:26.984Z,11.63
2022-12-13T09:08:54.772Z,22.53
2022-12-13T09:11:34.726Z,107.83
2022-12-13T09:14:04.821Z,15.23
2022-12-13T09:16:35.750Z,13.73
2022-12-13T09:19:06.556Z,92.97
2022-12-13T09:24:24.257Z,10.27
2022-12-13T09:26:57.410Z,11.93
2022-12-13T09:29:25.512Z,10.60
2022-12-13T09:31:53.416Z,16.90
2022-12-13T09:34:20.842Z,12.32
2022-12-13T09:36:47.717Z,12.03
2022-12-13T09:39:16.260Z,14.97
2022-12-13T09:41:50.626Z,63.00
2022-12-13T09:44:31.019Z,27.60
2022-12-13T09:47:02.918Z,11.80
2022-12-13T09:49:35.941Z,10.33
2022-12-13T09:52:11.398Z,10.60
2022-12-13T09:54:55.365Z,57.13
2022-12-13T09:57:33.855Z,15.10
2022-12-13T10:00:07.310Z,13.27
2022-12-13T10:02:58.837Z,14.70
2022-12-13T10:05:33.664Z,14.67
2022-12-13T10:08:19.040Z,12.53
2022-12-13T10:10:46.273Z,14.17
2022-12-13T10:13:26.862Z,16.73
2022-12-13T10:16:02.439Z,18.87
2022-12-13T10:18:38.237Z,18.07
2022-12-13T10:21:11.740Z,16.27
2022-12-13T10:24:15.302Z,16.57
2022-12-13T10:26:25.841Z,17.40
2022-12-13T10:29:02.993Z,18.83
2022-12-13T10:31:30.453Z,24.70
2022-12-13T10:33:57.647Z,18.53
2022-12-13T10:36:30.339Z,15.90
2022-12-13T10:38:57.523Z,16.47
2022-12-13T10:41:30.476Z,29.77
2022-12-13T10:44:09.486Z,18.43
2022-12-13T10:46:38.797Z,13.87
2022-12-13T10:49:26.320Z,15.70
2022-12-13T10:51:54.457Z,15.40
2022-12-13T10:54:29.140Z,17.03
2022-12-13T10:57:11.578Z,13.70
2022-12-13T10:59:39.944Z,24.03
2022-12-13T11:02:28.565Z,16.70
2022-12-13T11:04:56.462Z,17.58
2022-12-13T11:07:34.222Z,19.20
2022-12-13T11:10:36.605Z,12.27
2022-12-13T11:13:07.227Z,35.17
2022-12-13T11:15:38.262Z,18.55
2022-12-13T11:18:18.678Z,26.57
2022-12-13T11:20:59.432Z,24.57
2022-12-13T11:23:39.821Z,18.33
2022-12-13T11:26:16.808Z,23.60
2022-12-13T11:29:25.960Z,17.40
2022-12-13T11:32:09.362Z,17.87
2022-12-13T11:35:14.338Z,14.30
2022-12-13T11:38:05.194Z,16.33
2022-12-13T11:40:38.011Z,16.93
2022-12-13T11:43:42.777Z,13.53
2022-12-13T11:46:38.905Z,10.40
2022-12-13T11:49:24.532Z,12.57
2022-12-13T11:52:04.286Z,13.70
2022-12-13T11:54:52.827Z,12.03
2022-12-13T12:00:34.171Z,14.47
2022-12-13T12:03:06.742Z,14.73
2022-12-13T12:05:38.319Z,13.73
2022-12-13T12:08:42.563Z,15.47
2022-12-13T12:11:20.403Z,14.33
2022-12-13T12:13:54.831Z,16.65
2022-12-13T12:16:51.231Z,19.30
2022-12-13T12:19:34.726Z,14.90
2022-12-13T12:22:26.387Z,14.20
2022-12-13T12:25:04.171Z,13.23
2022-12-13T12:27:51.477Z,14.00
2022-12-13T12:30:38.991Z,15.13
2022-12-13T12:33:26.126Z,16.53
2022-12-13T12:36:08.596Z,11.83
2022-12-13T12:39:03.337Z,17.00
2022-12-13T12:41:49.224Z,12.67
2022-12-13T12:44:21.793Z,16.27
2022-12-13T12:47:01.491Z,17.67
2022-12-13T12:50:11.451Z,18.37
2022-12-13T12:53:04.621Z,11.07
2022-12-13T12:55:58.868Z,12.73
2022-12-13T12:58:38.369Z,12.63
2022-12-13T13:01:17.501Z,16.93
2022-12-13T13:03:46.365Z,16.93
2022-12-13T13:06:37.587Z,15.20
2022-12-13T13:09:07.539Z,12.27
2022-12-13T13:11:43.380Z,18.53
2022-12-13T13:14:28.652Z,17.83
2022-12-13T13:16:56.269Z,14.20
2022-12-13T13:19:32.101Z,20.70
2022-12-13T13:22:01.822Z,12.77
2022-12-13T13:24:34.782Z,17.27
2022-12-13T13:27:10.772Z,12.50
2022-12-13T13:29:43.618Z,12.63
2022-12-13T13:32:11.326Z,10.60
2022-12-13T13:34:41.874Z,13.83
2022-12-13T13:37:23.933Z,19.47
2022-12-13T13:40:02.664Z,41.63
2022-12-13T13:42:33.098Z,103.47
2022-12-13T13:45:24.155Z,84.37
2022-12-13T13:48:14.527Z,33.60
2022-12-13T13:50:50.820Z,18.97
2022-12-13T13:53:50.400Z,39.40
2022-12-13T13:56:50.227Z,17.57
2022-12-13T13:59:52.726Z,17.70
2022-12-13T14:02:49.519Z,17.93
2022-12-13T14:05:35.189Z,18.53
2022-12-13T14:08:02.296Z,15.37
2022-12-13T14:10:44.725Z,17.10
2022-12-13T14:13:27.797Z,19.03
2022-12-13T14:15:57.700Z,22.63
2022-12-13T14:18:47.080Z,18.10
2022-12-13T14:21:23.085Z,12.52
2022-12-13T14:24:02.921Z,34.47
2022-12-13T14:26:51.681Z,27.10
2022-12-13T14:29:33.898Z,17.23
2022-12-13T14:32:01.193Z,22.63
2022-12-13T14:34:30.921Z,23.40
2022-12-13T14:39:31.349Z,22.47
2022-12-13T14:42:00.079Z,21.77
2022-12-13T14:47:06.164Z,20.30
2022-12-13T14:49:41.757Z,17.20
2022-12-13T14:52:27.000Z,18.67
2022-12-13T14:54:59.659Z,20.98
2022-12-13T14:57:32.040Z,21.90
2022-12-13T15:00:02.260Z,28.80
2022-12-13T15:02:32.359Z,29.73
2022-12-13T15:05:05.718Z,26.30
2022-12-13T15:07:38.504Z,23.03
2022-12-13T15:10:08.395Z,44.57
2022-12-13T15:12:35.225Z,20.63
2022-12-13T15:15:05.510Z,19.23
2022-12-13T15:17:40.062Z,19.90
2022-12-13T15:20:27.749Z,21.33
2022-12-13T15:23:10.099Z,26.83
2022-12-13T15:25:37.684Z,22.67
2022-12-13T15:28:05.875Z,19.30
2022-12-13T15:30:35.642Z,24.35
2022-12-13T15:33:08.009Z,26.03
2022-12-13T15:35:38.980Z,29.33
2022-12-13T15:38:14.853Z,30.17
2022-12-13T15:40:56.827Z,32.90
2022-12-13T15:43:33.225Z,26.40
2022-12-13T15:46:00.474Z,28.13
2022-12-13T15:48:32.091Z,65.07
2022-12-13T15:51:14.707Z,40.80
2022-12-13T15:54:07.159Z,48.10
2022-12-13T15:56:57.895Z,33.73
2022-12-13T15:59:27.442Z,43.10
2022-12-13T16:01:58.566Z,51.13
2022-12-13T16:04:29.104Z,41.33
2022-12-13T16:06:57.121Z,37.47
2022-12-13T16:09:38.209Z,32.07
2022-12-13T16:12:07.169Z,36.60
2022-12-13T16:14:49.394Z,56.08
2022-12-13T16:17:27.094Z,123.87
2022-12-13T16:19:56.080Z,150.17
2022-12-13T16:22:24.234Z,94.97
2022-12-13T16:24:52.748Z,99.43
2022-12-13T16:27:19.950Z,86.72
2022-12-13T16:29:46.717Z,73.93
2022-12-13T16:32:13.900Z,95.00
2022-12-13T16:34:40.729Z,117.70
2022-12-13T16:37:26.030Z,125.10
2022-12-13T16:39:54.121Z,191.93
2022-12-13T16:42:21.718Z,225.37
2022-12-13T16:45:11.282Z,140.40
2022-12-13T16:47:48.003Z,112.00
2022-12-13T16:50:18.883Z,102.40
2022-12-13T16:52:46.304Z,146.50
2022-12-13T16:55:13.156Z,91.07
2022-12-13T16:57:40.419Z,91.10
2022-12-13T17:00:10.623Z,65.87
2022-12-13T17:02:38.164Z,55.67
2022-12-13T17:05:05.663Z,43.83
2022-12-13T17:07:33.421Z,48.27
2022-12-13T17:10:00.219Z,32.97
2022-12-13T17:12:27.335Z,35.93
2022-12-13T17:14:54.468Z,34.73
2022-12-13T17:17:21.638Z,26.70
2022-12-13T17:19:48.533Z,30.13
2022-12-13T17:22:15.615Z,28.13
2022-12-13T17:24:42.464Z,24.87
2022-12-13T17:27:09.932Z,207.07
2022-12-13T17:29:36.890Z,37.53
2022-12-13T17:32:05.037Z,25.50
2022-12-13T17:34:32.074Z,24.47
2022-12-13T17:36:59.241Z,22.43
2022-12-13T17:39:26.077Z,22.47
2022-12-13T17:41:55.643Z,24.90
2022-12-13T17:44:24.458Z,27.33
2022-12-13T17:49:23.241Z,26.87
2022-12-13T17:51:52.815Z,27.35
2022-12-13T17:54:21.086Z,32.57
2022-12-13T17:56:48.739Z,31.02
2022-12-13T17:59:16.349Z,35.03
2022-12-13T18:01:44.255Z,35.67
2022-12-13T18:04:12.628Z,31.30
2022-12-13T18:06:40.380Z,30.95
2022-12-13T18:09:08.550Z,32.87
2022-12-13T18:11:35.938Z,48.95
2022-12-13T18:14:07.513Z,34.50
2022-12-13T18:16:37.987Z,35.83
2022-12-13T18:19:12.368Z,63.23
2022-12-13T18:21:40.052Z,36.97
2022-12-13T18:24:07.317Z,44.23
2022-12-13T18:26:34.875Z,63.63
2022-12-13T18:29:02.704Z,65.73
2022-12-13T18:31:29.886Z,63.78
2022-12-13T18:33:57.022Z,58.43
2022-12-13T18:36:25.339Z,63.50
2022-12-13T18:38:52.856Z,48.25
2022-12-13T18:41:23.908Z,51.20
2022-12-13T18:43:55.901Z,41.50
2022-12-13T18:46:31.625Z,36.80
2022-12-13T18:48:58.880Z,48.40
2022-12-13T18:51:27.126Z,84.57
2022-12-13T18:53:54.994Z,47.63
2022-12-13T18:56:22.924Z,89.72
2022-12-13T18:58:50.943Z,64.87
2022-12-13T19:01:19.100Z,80.18
2022-12-13T19:03:47.322Z,84.93
2022-12-13T19:06:23.206Z,68.50
2022-12-13T19:08:56.286Z,75.03
2022-12-13T19:11:26.052Z,81.83
2022-12-13T19:13:53.084Z,92.37
2022-12-13T19:16:21.844Z,93.00
2022-12-13T19:18:49.035Z,103.53
2022-12-13T19:21:19.090Z,97.37
2022-12-13T19:23:51.316Z,110.47
2022-12-13T19:26:22.829Z,116.90
2022-12-13T19:28:49.629Z,99.77
2022-12-13T19:31:16.775Z,112.83
2022-12-13T19:33:44.037Z,100.83
2022-12-13T19:36:11.697Z,92.17
2022-12-13T19:38:39.466Z,68.83
2022-12-13T19:41:09.401Z,83.53
2022-12-13T19:43:36.381Z,49.93
2022-12-13T19:46:03.921Z,53.77
2022-12-13T19:48:30.826Z,42.53
2022-12-13T19:50:59.862Z,42.00
2022-12-13T19:53:28.302Z,55.00
2022-12-13T19:55:56.282Z,54.83
2022-12-13T19:58:23.433Z,58.83
2022-12-13T20:00:50.696Z,43.20
2022-12-13T20:03:17.893Z,52.07
2022-12-13T20:05:45.987Z,46.87
2022-12-13T20:08:12.909Z,44.83
2022-12-13T20:10:40.086Z,51.20
2022-12-13T20:13:06.914Z,56.27
2022-12-13T20:15:34.128Z,58.53
2022-12-13T20:18:00.892Z,52.40
2022-12-13T20:20:40.973Z,63.43
2022-12-13T20:23:14.865Z,63.93
2022-12-13T20:25:41.999Z,64.03
2022-12-13T20:28:15.896Z,55.25
2022-12-13T20:30:43.504Z,56.30
2022-12-13T20:33:13.832Z,57.47
2022-12-13T20:36:00.929Z,60.90
2022-12-13T20:38:29.949Z,68.95
2022-12-13T20:41:02.101Z,58.97
2022-12-13T20:43:30.106Z,64.53
2022-12-13T20:46:10.228Z,51.03
2022-12-13T20:48:45.189Z,58.60
2022-12-13T20:51:14.789Z,66.40
2022-12-13T20:53:43.870Z,61.30
2022-12-13T20:56:18.516Z,73.53
2022-12-13T20:58:45.574Z,77.53
2022-12-13T21:01:21.102Z,64.33
2022-12-13T21:03:48.313Z,70.13
2022-12-13T21:06:15.793Z,66.10
2022-12-13T21:08:51.256Z,60.20
2022-12-13T21:11:35.146Z,74.73
2022-12-13T21:14:23.485Z,84.00
2022-12-13T21:16:57.074Z,82.17
2022-12-13T21:19:26.185Z,78.40
2022-12-13T21:21:54.589Z,81.17
2022-12-13T21:24:23.163Z,59.15
2022-12-13T21:29:18.868Z,57.70
2022-12-13T21:31:49.863Z,88.97
2022-12-13T21:34:18.083Z,96.50
2022-12-13T21:36:47.591Z,86.43
2022-12-13T21:39:17.945Z,83.20
2022-12-13T21:41:45.663Z,73.13
2022-12-13T21:44:15.228Z,71.90
2022-12-13T21:49:29.805Z,142.00
2022-12-13T21:51:57.358Z,95.53
2022-12-13T21:54:24.141Z,78.70
2022-12-13T21:57:09.854Z,98.83
2022-12-13T21:59:36.877Z,191.03
2022-12-13T22:02:12.143Z,129.70
2022-12-13T22:04:40.702Z,126.83
2022-12-13T22:07:09.400Z,100.38
2022-12-13T22:09:37.286Z,69.47
2022-12-13T22:12:10.192Z,69.23
2022-12-13T22:14:37.717Z,70.43
2022-12-13T22:17:04.797Z,82.87
2022-12-13T22:19:31.727Z,85.27
2022-12-13T22:21:58.912Z,80.27
2022-12-13T22:24:25.736Z,67.20
2022-12-13T22:26:52.768Z,70.10
2022-12-13T22:29:19.720Z,63.33
2022-12-13T22:31:48.850Z,79.50
2022-12-13T22:34:16.313Z,81.50
2022-12-13T22:36:43.423Z,61.03
2022-12-13T22:39:19.051Z,65.30
2022-12-13T22:41:47.424Z,62.10
2022-12-13T22:44:15.278Z,50.58
2022-12-13T22:46:43.009Z,54.50
2022-12-13T22:49:11.170Z,50.27
2022-12-13T22:51:39.267Z,54.67
2022-12-13T22:54:06.925Z,49.87
2022-12-13T22:56:34.482Z,51.37
2022-12-13T22:59:02.892Z,42.70
2022-12-13T23:01:39.957Z,54.00
2022-12-13T23:04:07.537Z,50.60
2022-12-13T23:06:37.286Z,37.67
2022-12-13T23:09:11.353Z,50.60
2022-12-13T23:11:57.830Z,42.23
2022-12-13T23:14:31.322Z,60.43
2022-12-13T23:16:59.258Z,52.53
2022-12-13T23:19:50.631Z,55.17
2022-12-13T23:22:14.173Z,48.55
2022-12-13T23:24:41.023Z,35.70
2022-12-13T23:27:08.073Z,44.10
2022-12-13T23:29:35.018Z,39.20
2022-12-13T23:32:02.184Z,35.90
2022-12-13T23:34:28.969Z,37.67
2022-12-13T23:36:56.046Z,35.47
2022-12-13T23:39:22.797Z,35.93
2022-12-13T23:41:49.972Z,38.37
2022-12-13T23:44:16.806Z,31.77
2022-12-13T23:46:48.579Z,38.00
2022-12-13T23:49:16.416Z,37.00
2022-12-13T23:51:43.772Z,34.93
2022-12-13T23:54:14.765Z,41.97
2022-12-13T23:56:42.105Z,34.30
2022-12-13T23:59:08.949Z,40.30
